sensor_id;sensor_type;location;lat;lon;timestamp;temperature;humidity
11304;DHT22;5707;49.588;12.148;2023-06-26T00:02:12;14.00;99.90
11304;DHT22;5707;49.588;12.148;2023-06-26T00:04:38;14.00;99.90
11304;DHT22;5707;49.588;12.148;2023-06-26T00:07:06;13.90;99.90
11304;DHT22;5707;49.588;12.148;2023-06-26T00:09:32;13.90;99.90
11304;DHT22;5707;49.588;12.148;2023-06-26T00:11:58;13.90;99.90
11304;DHT22;5707;49.588;12.148;2023-06-26T00:14:24;13.90;99.90
11304;DHT22;5707;49.588;12.148;2023-06-26T00:16:51;13.90;99.90
11304;DHT22;5707;49.588;12.148;2023-06-26T00:19:17;13.80;99.90
11304;DHT22;5707;49.588;12.148;2023-06-26T00:21:43;13.80;99.90
11304;DHT22;5707;49.588;12.148;2023-06-26T00:24:14;13.80;99.90
11304;DHT22;5707;49.588;12.148;2023-06-26T00:26:40;13.80;99.90
11304;DHT22;5707;49.588;12.148;2023-06-26T00:29:05;13.90;99.90
11304;DHT22;5707;49.588;12.148;2023-06-26T00:31:31;13.80;99.90
11304;DHT22;5707;49.588;12.148;2023-06-26T00:33:57;13.80;99.90
11304;DHT22;5707;49.588;12.148;2023-06-26T00:36:22;13.70;99.90
11304;DHT22;5707;49.588;12.148;2023-06-26T00:38:52;13.60;99.90
11304;DHT22;5707;49.588;12.148;2023-06-26T00:41:18;13.60;99.90
11304;DHT22;5707;49.588;12.148;2023-06-26T00:43:43;13.60;99.90
11304;DHT22;5707;49.588;12.148;2023-06-26T00:46:12;13.70;99.90
11304;DHT22;5707;49.588;12.148;2023-06-26T00:48:39;13.60;99.90
11304;DHT22;5707;49.588;12.148;2023-06-26T00:51:06;13.60;99.90
11304;DHT22;5707;49.588;12.148;2023-06-26T00:53:32;13.60;99.90
11304;DHT22;5707;49.588;12.148;2023-06-26T00:55:59;13.60;99.90
11304;DHT22;5707;49.588;12.148;2023-06-26T00:58:25;13.60;99.90
11304;DHT22;5707;49.588;12.148;2023-06-26T01:00:51;13.50;99.90
11304;DHT22;5707;49.588;12.148;2023-06-26T01:03:18;13.50;99.90
11304;DHT22;5707;49.588;12.148;2023-06-26T01:05:44;13.50;99.90
11304;DHT22;5707;49.588;12.148;2023-06-26T01:08:12;13.50;99.90
11304;DHT22;5707;49.588;12.148;2023-06-26T01:10:39;13.40;99.90
11304;DHT22;5707;49.588;12.148;2023-06-26T01:13:05;13.30;99.90
11304;DHT22;5707;49.588;12.148;2023-06-26T01:15:30;13.30;99.90
11304;DHT22;5707;49.588;12.148;2023-06-26T01:17:57;13.40;99.90
11304;DHT22;5707;49.588;12.148;2023-06-26T01:20:25;13.40;99.90
11304;DHT22;5707;49.588;12.148;2023-06-26T01:23:00;13.30;99.90
11304;DHT22;5707;49.588;12.148;2023-06-26T01:25:51;13.30;99.90
11304;DHT22;5707;49.588;12.148;2023-06-26T01:28:22;13.40;99.90
11304;DHT22;5707;49.588;12.148;2023-06-26T01:30:51;13.40;99.90
11304;DHT22;5707;49.588;12.148;2023-06-26T01:33:16;13.30;99.90
11304;DHT22;5707;49.588;12.148;2023-06-26T01:35:42;13.30;99.90
11304;DHT22;5707;49.588;12.148;2023-06-26T01:38:16;13.20;99.90
11304;DHT22;5707;49.588;12.148;2023-06-26T01:40:42;13.20;99.90
11304;DHT22;5707;49.588;12.148;2023-06-26T01:45:41;13.20;99.90
11304;DHT22;5707;49.588;12.148;2023-06-26T01:48:08;13.30;99.90
11304;DHT22;5707;49.588;12.148;2023-06-26T01:50:36;13.20;99.90
11304;DHT22;5707;49.588;12.148;2023-06-26T01:53:06;13.20;99.90
11304;DHT22;5707;49.588;12.148;2023-06-26T01:58:20;13.10;99.90
11304;DHT22;5707;49.588;12.148;2023-06-26T02:00:48;13.00;99.90
11304;DHT22;5707;49.588;12.148;2023-06-26T02:03:13;13.00;99.90
11304;DHT22;5707;49.588;12.148;2023-06-26T02:05:39;13.00;99.90
11304;DHT22;5707;49.588;12.148;2023-06-26T02:08:05;12.90;99.90
11304;DHT22;5707;49.588;12.148;2023-06-26T02:10:31;12.90;99.90
11304;DHT22;5707;49.588;12.148;2023-06-26T02:12:56;12.90;99.90
11304;DHT22;5707;49.588;12.148;2023-06-26T02:15:22;12.80;99.90
11304;DHT22;5707;49.588;12.148;2023-06-26T02:17:47;12.80;99.90
11304;DHT22;5707;49.588;12.148;2023-06-26T02:20:14;12.70;99.90
11304;DHT22;5707;49.588;12.148;2023-06-26T02:22:41;12.70;99.90
11304;DHT22;5707;49.588;12.148;2023-06-26T02:25:07;12.70;99.90
11304;DHT22;5707;49.588;12.148;2023-06-26T02:27:32;12.70;99.90
11304;DHT22;5707;49.588;12.148;2023-06-26T02:29:58;12.60;99.90
11304;DHT22;5707;49.588;12.148;2023-06-26T02:32:23;12.60;99.90
11304;DHT22;5707;49.588;12.148;2023-06-26T02:34:49;12.60;99.90
11304;DHT22;5707;49.588;12.148;2023-06-26T02:37:17;12.60;99.90
11304;DHT22;5707;49.588;12.148;2023-06-26T02:39:43;12.60;99.90
11304;DHT22;5707;49.588;12.148;2023-06-26T02:42:08;12.60;99.90
11304;DHT22;5707;49.588;12.148;2023-06-26T02:44:34;12.50;99.90
11304;DHT22;5707;49.588;12.148;2023-06-26T02:46:59;12.50;99.90
11304;DHT22;5707;49.588;12.148;2023-06-26T02:49:25;12.50;99.90
11304;DHT22;5707;49.588;12.148;2023-06-26T02:51:50;12.40;99.90
11304;DHT22;5707;49.588;12.148;2023-06-26T02:54:16;12.40;99.90
11304;DHT22;5707;49.588;12.148;2023-06-26T02:56:41;12.50;99.90
11304;DHT22;5707;49.588;12.148;2023-06-26T02:59:08;12.50;99.90
11304;DHT22;5707;49.588;12.148;2023-06-26T03:01:33;12.50;99.90
11304;DHT22;5707;49.588;12.148;2023-06-26T03:03:59;12.40;99.90
11304;DHT22;5707;49.588;12.148;2023-06-26T03:06:26;12.40;99.90
11304;DHT22;5707;49.588;12.148;2023-06-26T03:08:53;12.40;99.90
11304;DHT22;5707;49.588;12.148;2023-06-26T03:11:18;12.40;99.90
11304;DHT22;5707;49.588;12.148;2023-06-26T03:13:44;12.40;99.90
11304;DHT22;5707;49.588;12.148;2023-06-26T03:16:10;12.40;99.90
11304;DHT22;5707;49.588;12.148;2023-06-26T03:18:35;12.40;99.90
11304;DHT22;5707;49.588;12.148;2023-06-26T03:21:01;12.40;99.90
11304;DHT22;5707;49.588;12.148;2023-06-26T03:23:26;12.40;99.90
11304;DHT22;5707;49.588;12.148;2023-06-26T03:25:52;12.50;99.90
11304;DHT22;5707;49.588;12.148;2023-06-26T03:28:18;12.50;99.90
11304;DHT22;5707;49.588;12.148;2023-06-26T03:30:44;12.60;99.90
11304;DHT22;5707;49.588;12.148;2023-06-26T03:33:09;12.60;99.90
11304;DHT22;5707;49.588;12.148;2023-06-26T03:35:35;12.70;99.90
11304;DHT22;5707;49.588;12.148;2023-06-26T03:38:01;12.80;99.90
11304;DHT22;5707;49.588;12.148;2023-06-26T03:40:26;12.90;99.90
11304;DHT22;5707;49.588;12.148;2023-06-26T03:42:52;12.90;99.90
11304;DHT22;5707;49.588;12.148;2023-06-26T03:45:18;13.00;99.90
11304;DHT22;5707;49.588;12.148;2023-06-26T03:47:44;13.10;99.90
11304;DHT22;5707;49.588;12.148;2023-06-26T03:50:12;13.20;99.90
11304;DHT22;5707;49.588;12.148;2023-06-26T03:52:38;13.30;99.90
11304;DHT22;5707;49.588;12.148;2023-06-26T03:55:03;13.40;99.90
11304;DHT22;5707;49.588;12.148;2023-06-26T03:57:29;13.40;99.90
11304;DHT22;5707;49.588;12.148;2023-06-26T03:59:55;13.50;99.90
11304;DHT22;5707;49.588;12.148;2023-06-26T04:02:20;13.60;99.90
11304;DHT22;5707;49.588;12.148;2023-06-26T04:04:46;13.70;99.90
11304;DHT22;5707;49.588;12.148;2023-06-26T04:07:11;13.70;99.90
11304;DHT22;5707;49.588;12.148;2023-06-26T04:09:37;13.80;99.90
11304;DHT22;5707;49.588;12.148;2023-06-26T04:12:03;13.90;99.90
11304;DHT22;5707;49.588;12.148;2023-06-26T04:14:29;14.10;99.90
11304;DHT22;5707;49.588;12.148;2023-06-26T04:16:55;14.20;99.90
11304;DHT22;5707;49.588;12.148;2023-06-26T04:19:20;15.10;99.90
11304;DHT22;5707;49.588;12.148;2023-06-26T04:21:46;16.40;99.90
11304;DHT22;5707;49.588;12.148;2023-06-26T04:24:11;17.90;99.90
11304;DHT22;5707;49.588;12.148;2023-06-26T04:26:37;19.10;99.90
11304;DHT22;5707;49.588;12.148;2023-06-26T04:29:03;20.10;99.90
11304;DHT22;5707;49.588;12.148;2023-06-26T04:31:29;20.80;99.90
11304;DHT22;5707;49.588;12.148;2023-06-26T04:33:54;21.50;99.90
11304;DHT22;5707;49.588;12.148;2023-06-26T04:36:20;22.20;99.90
11304;DHT22;5707;49.588;12.148;2023-06-26T04:38:46;22.80;99.90
11304;DHT22;5707;49.588;12.148;2023-06-26T04:41:13;23.30;99.90
11304;DHT22;5707;49.588;12.148;2023-06-26T04:43:39;23.60;99.30
11304;DHT22;5707;49.588;12.148;2023-06-26T04:46:05;23.80;97.90
11304;DHT22;5707;49.588;12.148;2023-06-26T04:48:31;23.90;97.50
11304;DHT22;5707;49.588;12.148;2023-06-26T04:50:57;24.00;96.30
11304;DHT22;5707;49.588;12.148;2023-06-26T04:53:24;24.20;95.40
11304;DHT22;5707;49.588;12.148;2023-06-26T04:55:53;24.30;95.40
11304;DHT22;5707;49.588;12.148;2023-06-26T04:58:19;24.00;95.60
11304;DHT22;5707;49.588;12.148;2023-06-26T05:00:45;24.00;95.80
11304;DHT22;5707;49.588;12.148;2023-06-26T05:03:16;24.20;96.00
11304;DHT22;5707;49.588;12.148;2023-06-26T05:05:43;24.40;96.50
11304;DHT22;5707;49.588;12.148;2023-06-26T05:08:21;24.80;95.20
11304;DHT22;5707;49.588;12.148;2023-06-26T05:10:47;25.10;94.00
11304;DHT22;5707;49.588;12.148;2023-06-26T05:13:13;25.00;93.60
11304;DHT22;5707;49.588;12.148;2023-06-26T05:15:41;25.00;93.80
11304;DHT22;5707;49.588;12.148;2023-06-26T05:18:07;25.10;92.90
11304;DHT22;5707;49.588;12.148;2023-06-26T05:20:34;25.30;92.60
11304;DHT22;5707;49.588;12.148;2023-06-26T05:23:04;25.40;92.60
11304;DHT22;5707;49.588;12.148;2023-06-26T05:25:31;25.40;93.40
11304;DHT22;5707;49.588;12.148;2023-06-26T05:27:57;25.60;93.00
11304;DHT22;5707;49.588;12.148;2023-06-26T05:30:25;25.50;93.30
11304;DHT22;5707;49.588;12.148;2023-06-26T05:32:51;25.40;92.90
11304;DHT22;5707;49.588;12.148;2023-06-26T05:35:18;25.10;94.00
11304;DHT22;5707;49.588;12.148;2023-06-26T05:37:45;25.20;94.00
11304;DHT22;5707;49.588;12.148;2023-06-26T05:40:12;25.50;93.40
11304;DHT22;5707;49.588;12.148;2023-06-26T05:42:38;25.20;94.00
11304;DHT22;5707;49.588;12.148;2023-06-26T05:45:04;24.30;95.40
11304;DHT22;5707;49.588;12.148;2023-06-26T05:47:30;23.50;97.20
11304;DHT22;5707;49.588;12.148;2023-06-26T05:49:55;23.00;98.50
11304;DHT22;5707;49.588;12.148;2023-06-26T05:52:21;22.70;99.90
11304;DHT22;5707;49.588;12.148;2023-06-26T05:54:47;22.50;99.90
11304;DHT22;5707;49.588;12.148;2023-06-26T05:57:13;22.40;99.90
11304;DHT22;5707;49.588;12.148;2023-06-26T05:59:40;22.40;99.90
11304;DHT22;5707;49.588;12.148;2023-06-26T06:02:07;22.50;99.90
11304;DHT22;5707;49.588;12.148;2023-06-26T06:04:32;22.60;99.90
11304;DHT22;5707;49.588;12.148;2023-06-26T06:06:58;22.60;99.90
11304;DHT22;5707;49.588;12.148;2023-06-26T06:09:23;22.80;99.90
11304;DHT22;5707;49.588;12.148;2023-06-26T06:11:50;23.00;99.90
11304;DHT22;5707;49.588;12.148;2023-06-26T06:14:15;23.20;99.90
11304;DHT22;5707;49.588;12.148;2023-06-26T06:16:41;23.20;99.70
11304;DHT22;5707;49.588;12.148;2023-06-26T06:19:06;23.30;98.40
11304;DHT22;5707;49.588;12.148;2023-06-26T06:21:33;23.50;97.30
11304;DHT22;5707;49.588;12.148;2023-06-26T06:23:58;23.50;96.40
11304;DHT22;5707;49.588;12.148;2023-06-26T06:26:24;23.50;97.20
11304;DHT22;5707;49.588;12.148;2023-06-26T06:28:49;23.50;97.00
11304;DHT22;5707;49.588;12.148;2023-06-26T06:31:15;23.60;95.90
11304;DHT22;5707;49.588;12.148;2023-06-26T06:33:40;23.60;96.40
11304;DHT22;5707;49.588;12.148;2023-06-26T06:36:06;23.80;95.90
11304;DHT22;5707;49.588;12.148;2023-06-26T06:38:32;23.80;95.70
11304;DHT22;5707;49.588;12.148;2023-06-26T06:40:57;23.90;96.40
11304;DHT22;5707;49.588;12.148;2023-06-26T06:43:23;23.90;96.20
11304;DHT22;5707;49.588;12.148;2023-06-26T06:45:48;24.00;95.00
11304;DHT22;5707;49.588;12.148;2023-06-26T06:48:14;24.00;94.70
11304;DHT22;5707;49.588;12.148;2023-06-26T06:50:39;24.00;96.10
11304;DHT22;5707;49.588;12.148;2023-06-26T06:53:07;24.00;94.00
11304;DHT22;5707;49.588;12.148;2023-06-26T06:55:33;24.10;94.40
11304;DHT22;5707;49.588;12.148;2023-06-26T06:57:59;24.20;94.20
11304;DHT22;5707;49.588;12.148;2023-06-26T07:00:25;24.30;93.90
11304;DHT22;5707;49.588;12.148;2023-06-26T07:02:50;24.30;93.60
11304;DHT22;5707;49.588;12.148;2023-06-26T07:05:16;24.40;93.80
11304;DHT22;5707;49.588;12.148;2023-06-26T07:07:42;24.40;94.10
11304;DHT22;5707;49.588;12.148;2023-06-26T07:10:12;24.40;94.00
11304;DHT22;5707;49.588;12.148;2023-06-26T07:12:38;24.50;93.80
11304;DHT22;5707;49.588;12.148;2023-06-26T07:15:05;24.60;93.40
11304;DHT22;5707;49.588;12.148;2023-06-26T07:17:32;24.70;92.40
11304;DHT22;5707;49.588;12.148;2023-06-26T07:19:58;24.80;92.00
11304;DHT22;5707;49.588;12.148;2023-06-26T07:22:24;24.90;91.40
11304;DHT22;5707;49.588;12.148;2023-06-26T07:24:49;25.00;91.30
11304;DHT22;5707;49.588;12.148;2023-06-26T07:27:15;25.20;90.80
11304;DHT22;5707;49.588;12.148;2023-06-26T07:29:41;25.20;89.70
11304;DHT22;5707;49.588;12.148;2023-06-26T07:32:07;25.40;90.00
11304;DHT22;5707;49.588;12.148;2023-06-26T07:34:33;25.40;89.30
11304;DHT22;5707;49.588;12.148;2023-06-26T07:36:58;25.50;89.00
11304;DHT22;5707;49.588;12.148;2023-06-26T07:39:24;25.70;87.40
11304;DHT22;5707;49.588;12.148;2023-06-26T07:41:50;25.80;85.30
11304;DHT22;5707;49.588;12.148;2023-06-26T07:44:15;25.90;86.40
11304;DHT22;5707;49.588;12.148;2023-06-26T07:46:41;26.00;84.30
11304;DHT22;5707;49.588;12.148;2023-06-26T07:49:06;26.10;76.80
11304;DHT22;5707;49.588;12.148;2023-06-26T07:51:32;26.10;80.50
11304;DHT22;5707;49.588;12.148;2023-06-26T07:53:57;26.20;79.00
11304;DHT22;5707;49.588;12.148;2023-06-26T07:56:23;26.30;75.50
11304;DHT22;5707;49.588;12.148;2023-06-26T07:58:49;26.40;70.60
11304;DHT22;5707;49.588;12.148;2023-06-26T08:01:14;26.40;72.30
11304;DHT22;5707;49.588;12.148;2023-06-26T08:03:40;26.50;72.70
11304;DHT22;5707;49.588;12.148;2023-06-26T08:06:05;26.60;68.30
11304;DHT22;5707;49.588;12.148;2023-06-26T08:08:31;26.70;67.10
11304;DHT22;5707;49.588;12.148;2023-06-26T08:10:57;26.70;69.00
11304;DHT22;5707;49.588;12.148;2023-06-26T08:13:22;26.80;65.10
11304;DHT22;5707;49.588;12.148;2023-06-26T08:15:48;26.90;62.00
11304;DHT22;5707;49.588;12.148;2023-06-26T08:18:13;26.90;60.30
11304;DHT22;5707;49.588;12.148;2023-06-26T08:20:39;27.00;62.30
11304;DHT22;5707;49.588;12.148;2023-06-26T08:23:05;27.10;60.40
11304;DHT22;5707;49.588;12.148;2023-06-26T08:25:30;27.30;58.50
11304;DHT22;5707;49.588;12.148;2023-06-26T08:27:56;27.40;58.80
11304;DHT22;5707;49.588;12.148;2023-06-26T08:30:22;27.40;56.90
11304;DHT22;5707;49.588;12.148;2023-06-26T08:32:48;27.40;57.30
11304;DHT22;5707;49.588;12.148;2023-06-26T08:35:14;27.40;57.30
11304;DHT22;5707;49.588;12.148;2023-06-26T08:37:39;27.40;55.40
11304;DHT22;5707;49.588;12.148;2023-06-26T08:40:06;27.50;58.00
11304;DHT22;5707;49.588;12.148;2023-06-26T08:42:34;27.70;56.50
11304;DHT22;5707;49.588;12.148;2023-06-26T08:45:00;27.80;55.00
11304;DHT22;5707;49.588;12.148;2023-06-26T08:47:26;27.80;54.50
11304;DHT22;5707;49.588;12.148;2023-06-26T08:50:00;27.80;52.50
11304;DHT22;5707;49.588;12.148;2023-06-26T08:52:35;27.90;52.20
11304;DHT22;5707;49.588;12.148;2023-06-26T08:55:02;27.90;55.10
11304;DHT22;5707;49.588;12.148;2023-06-26T08:57:32;27.90;50.90
11304;DHT22;5707;49.588;12.148;2023-06-26T08:59:58;28.00;53.50
11304;DHT22;5707;49.588;12.148;2023-06-26T09:02:24;28.00;53.30
11304;DHT22;5707;49.588;12.148;2023-06-26T09:04:50;28.10;51.00
11304;DHT22;5707;49.588;12.148;2023-06-26T09:07:16;28.00;51.00
11304;DHT22;5707;49.588;12.148;2023-06-26T09:09:43;28.00;53.10
11304;DHT22;5707;49.588;12.148;2023-06-26T09:12:09;28.20;52.90
11304;DHT22;5707;49.588;12.148;2023-06-26T09:14:36;28.30;51.80
11304;DHT22;5707;49.588;12.148;2023-06-26T09:17:02;28.40;53.20
11304;DHT22;5707;49.588;12.148;2023-06-26T09:19:27;28.50;51.80
11304;DHT22;5707;49.588;12.148;2023-06-26T09:21:54;28.60;48.50
11304;DHT22;5707;49.588;12.148;2023-06-26T09:24:20;28.70;48.80
11304;DHT22;5707;49.588;12.148;2023-06-26T09:26:46;28.70;53.10
11304;DHT22;5707;49.588;12.148;2023-06-26T09:29:13;28.80;50.00
11304;DHT22;5707;49.588;12.148;2023-06-26T09:31:39;28.70;50.90
11304;DHT22;5707;49.588;12.148;2023-06-26T09:34:05;28.80;53.00
11304;DHT22;5707;49.588;12.148;2023-06-26T09:36:32;28.80;44.50
11304;DHT22;5707;49.588;12.148;2023-06-26T09:39:06;28.80;46.20
11304;DHT22;5707;49.588;12.148;2023-06-26T09:41:43;28.90;46.80
11304;DHT22;5707;49.588;12.148;2023-06-26T09:44:11;29.00;46.50
11304;DHT22;5707;49.588;12.148;2023-06-26T09:46:41;29.00;45.20
11304;DHT22;5707;49.588;12.148;2023-06-26T09:49:11;29.10;44.10
11304;DHT22;5707;49.588;12.148;2023-06-26T09:51:38;29.10;43.70
11304;DHT22;5707;49.588;12.148;2023-06-26T09:54:04;29.10;46.10
11304;DHT22;5707;49.588;12.148;2023-06-26T09:56:31;29.30;44.60
11304;DHT22;5707;49.588;12.148;2023-06-26T09:58:57;29.50;42.50
11304;DHT22;5707;49.588;12.148;2023-06-26T10:01:24;29.50;45.00
11304;DHT22;5707;49.588;12.148;2023-06-26T10:03:50;29.70;45.00
11304;DHT22;5707;49.588;12.148;2023-06-26T10:06:22;29.70;38.50
11304;DHT22;5707;49.588;12.148;2023-06-26T10:08:49;29.60;36.90
11304;DHT22;5707;49.588;12.148;2023-06-26T10:11:19;29.60;41.80
11304;DHT22;5707;49.588;12.148;2023-06-26T10:13:47;29.60;41.00
11304;DHT22;5707;49.588;12.148;2023-06-26T10:16:19;29.70;40.50
11304;DHT22;5707;49.588;12.148;2023-06-26T10:18:49;29.70;37.50
11304;DHT22;5707;49.588;12.148;2023-06-26T10:21:18;29.70;36.20
11304;DHT22;5707;49.588;12.148;2023-06-26T10:23:45;29.50;36.80
11304;DHT22;5707;49.588;12.148;2023-06-26T10:26:11;29.30;39.00
11304;DHT22;5707;49.588;12.148;2023-06-26T10:28:38;29.00;41.30
11304;DHT22;5707;49.588;12.148;2023-06-26T10:31:06;29.30;39.70
11304;DHT22;5707;49.588;12.148;2023-06-26T10:33:33;29.60;37.20
11304;DHT22;5707;49.588;12.148;2023-06-26T10:36:16;29.80;39.90
11304;DHT22;5707;49.588;12.148;2023-06-26T10:38:54;29.80;36.70
11304;DHT22;5707;49.588;12.148;2023-06-26T10:41:21;29.90;37.90
11304;DHT22;5707;49.588;12.148;2023-06-26T10:46:26;30.50;31.00
11304;DHT22;5707;49.588;12.148;2023-06-26T10:49:01;30.80;36.60
11304;DHT22;5707;49.588;12.148;2023-06-26T10:51:28;31.00;33.30
11304;DHT22;5707;49.588;12.148;2023-06-26T10:53:55;31.20;28.30
11304;DHT22;5707;49.588;12.148;2023-06-26T10:56:21;30.90;25.80
11304;DHT22;5707;49.588;12.148;2023-06-26T10:58:47;30.60;30.90
11304;DHT22;5707;49.588;12.148;2023-06-26T11:01:23;30.20;30.20
11304;DHT22;5707;49.588;12.148;2023-06-26T11:04:09;29.90;28.20
11304;DHT22;5707;49.588;12.148;2023-06-26T11:06:36;30.00;28.50
11304;DHT22;5707;49.588;12.148;2023-06-26T11:14:18;30.60;24.90
11304;DHT22;5707;49.588;12.148;2023-06-26T11:16:44;30.90;26.80
11304;DHT22;5707;49.588;12.148;2023-06-26T11:19:10;31.10;26.10
11304;DHT22;5707;49.588;12.148;2023-06-26T11:21:38;31.00;21.80
11304;DHT22;5707;49.588;12.148;2023-06-26T11:24:05;30.60;20.00
11304;DHT22;5707;49.588;12.148;2023-06-26T11:26:41;30.40;23.30
11304;DHT22;5707;49.588;12.148;2023-06-26T11:29:08;30.70;25.60
11304;DHT22;5707;49.588;12.148;2023-06-26T11:31:35;31.00;23.50
11304;DHT22;5707;49.588;12.148;2023-06-26T11:34:03;31.20;23.90
11304;DHT22;5707;49.588;12.148;2023-06-26T11:36:30;31.30;25.60
11304;DHT22;5707;49.588;12.148;2023-06-26T11:39:00;31.50;23.50
11304;DHT22;5707;49.588;12.148;2023-06-26T11:41:29;31.50;21.40
11304;DHT22;5707;49.588;12.148;2023-06-26T11:43:55;31.60;18.00
11304;DHT22;5707;49.588;12.148;2023-06-26T11:46:22;31.50;17.80
11304;DHT22;5707;49.588;12.148;2023-06-26T11:48:50;31.40;20.70
11304;DHT22;5707;49.588;12.148;2023-06-26T11:51:16;31.50;19.20
11304;DHT22;5707;49.588;12.148;2023-06-26T11:53:43;31.60;21.10
11304;DHT22;5707;49.588;12.148;2023-06-26T11:56:17;31.60;19.50
11304;DHT22;5707;49.588;12.148;2023-06-26T11:59:15;31.60;20.30
11304;DHT22;5707;49.588;12.148;2023-06-26T12:01:42;31.60;18.10
11304;DHT22;5707;49.588;12.148;2023-06-26T12:04:11;31.60;19.40
11304;DHT22;5707;49.588;12.148;2023-06-26T12:06:39;31.60;19.40
11304;DHT22;5707;49.588;12.148;2023-06-26T12:09:08;31.30;19.50
11304;DHT22;5707;49.588;12.148;2023-06-26T12:11:37;31.10;20.10
11304;DHT22;5707;49.588;12.148;2023-06-26T12:14:07;31.30;21.20
11304;DHT22;5707;49.588;12.148;2023-06-26T12:16:34;31.60;20.60
11304;DHT22;5707;49.588;12.148;2023-06-26T12:19:04;32.00;17.20
11304;DHT22;5707;49.588;12.148;2023-06-26T12:21:44;32.30;18.90
11304;DHT22;5707;49.588;12.148;2023-06-26T12:24:15;32.60;16.90
11304;DHT22;5707;49.588;12.148;2023-06-26T12:26:45;32.90;16.40
11304;DHT22;5707;49.588;12.148;2023-06-26T12:29:14;33.00;14.40
11304;DHT22;5707;49.588;12.148;2023-06-26T12:31:41;33.00;15.70
11304;DHT22;5707;49.588;12.148;2023-06-26T12:34:14;33.40;17.30
11304;DHT22;5707;49.588;12.148;2023-06-26T12:36:48;33.60;17.90
11304;DHT22;5707;49.588;12.148;2023-06-26T12:39:19;33.90;17.00
11304;DHT22;5707;49.588;12.148;2023-06-26T12:41:57;34.00;16.90
11304;DHT22;5707;49.588;12.148;2023-06-26T12:44:28;33.80;17.30
11304;DHT22;5707;49.588;12.148;2023-06-26T12:46:56;33.80;19.40
11304;DHT22;5707;49.588;12.148;2023-06-26T12:49:39;33.80;16.00
11304;DHT22;5707;49.588;12.148;2023-06-26T12:52:07;34.00;18.20
11304;DHT22;5707;49.588;12.148;2023-06-26T12:54:39;34.00;15.90
11304;DHT22;5707;49.588;12.148;2023-06-26T12:57:05;34.00;13.50
11304;DHT22;5707;49.588;12.148;2023-06-26T12:59:31;33.90;14.70
11304;DHT22;5707;49.588;12.148;2023-06-26T13:01:57;33.90;12.20
11304;DHT22;5707;49.588;12.148;2023-06-26T13:04:23;33.40;13.40
11304;DHT22;5707;49.588;12.148;2023-06-26T13:06:50;32.80;16.50
11304;DHT22;5707;49.588;12.148;2023-06-26T13:09:16;32.40;16.60
11304;DHT22;5707;49.588;12.148;2023-06-26T13:11:42;32.40;15.60
11304;DHT22;5707;49.588;12.148;2023-06-26T13:14:07;32.50;18.20
11304;DHT22;5707;49.588;12.148;2023-06-26T13:16:33;32.50;19.30
11304;DHT22;5707;49.588;12.148;2023-06-26T13:18:59;32.40;18.70
11304;DHT22;5707;49.588;12.148;2023-06-26T13:21:27;32.50;16.30
11304;DHT22;5707;49.588;12.148;2023-06-26T13:23:53;32.90;17.30
11304;DHT22;5707;49.588;12.148;2023-06-26T13:26:19;33.00;21.50
11304;DHT22;5707;49.588;12.148;2023-06-26T13:28:47;32.80;15.20
11304;DHT22;5707;49.588;12.148;2023-06-26T13:31:12;32.40;14.20
11304;DHT22;5707;49.588;12.148;2023-06-26T13:33:38;32.30;15.10
11304;DHT22;5707;49.588;12.148;2023-06-26T13:36:04;32.50;17.10
11304;DHT22;5707;49.588;12.148;2023-06-26T13:38:32;33.00;16.50
11304;DHT22;5707;49.588;12.148;2023-06-26T13:40:57;33.40;19.50
11304;DHT22;5707;49.588;12.148;2023-06-26T13:43:24;33.80;14.70
11304;DHT22;5707;49.588;12.148;2023-06-26T13:45:50;33.60;14.50
11304;DHT22;5707;49.588;12.148;2023-06-26T13:48:16;33.20;17.00
11304;DHT22;5707;49.588;12.148;2023-06-26T13:50:41;32.60;15.90
11304;DHT22;5707;49.588;12.148;2023-06-26T13:53:07;32.30;14.80
11304;DHT22;5707;49.588;12.148;2023-06-26T13:55:34;32.50;16.40
11304;DHT22;5707;49.588;12.148;2023-06-26T13:58:00;33.00;14.90
11304;DHT22;5707;49.588;12.148;2023-06-26T14:00:31;33.20;16.10
11304;DHT22;5707;49.588;12.148;2023-06-26T14:03:02;33.40;15.20
11304;DHT22;5707;49.588;12.148;2023-06-26T14:05:29;33.60;16.80
11304;DHT22;5707;49.588;12.148;2023-06-26T14:07:54;33.80;14.60
11304;DHT22;5707;49.588;12.148;2023-06-26T14:10:21;33.60;14.60
11304;DHT22;5707;49.588;12.148;2023-06-26T14:12:46;33.50;14.80
11304;DHT22;5707;49.588;12.148;2023-06-26T14:15:12;33.60;14.90
11304;DHT22;5707;49.588;12.148;2023-06-26T14:17:38;33.60;16.20
11304;DHT22;5707;49.588;12.148;2023-06-26T14:20:06;33.70;11.70
11304;DHT22;5707;49.588;12.148;2023-06-26T14:22:35;33.60;11.40
11304;DHT22;5707;49.588;12.148;2023-06-26T14:25:02;33.80;15.60
11304;DHT22;5707;49.588;12.148;2023-06-26T14:27:28;34.10;13.50
11304;DHT22;5707;49.588;12.148;2023-06-26T14:29:53;34.10;11.60
11304;DHT22;5707;49.588;12.148;2023-06-26T14:32:19;34.10;10.20
11304;DHT22;5707;49.588;12.148;2023-06-26T14:34:45;34.00;10.00
11304;DHT22;5707;49.588;12.148;2023-06-26T14:37:10;34.10;9.70
11304;DHT22;5707;49.588;12.148;2023-06-26T14:39:36;34.10;11.80
11304;DHT22;5707;49.588;12.148;2023-06-26T14:42:04;34.30;9.20
11304;DHT22;5707;49.588;12.148;2023-06-26T14:44:29;34.40;11.30
11304;DHT22;5707;49.588;12.148;2023-06-26T14:46:55;34.70;10.10
11304;DHT22;5707;49.588;12.148;2023-06-26T14:49:21;34.90;9.00
11304;DHT22;5707;49.588;12.148;2023-06-26T14:51:46;34.80;9.00
11304;DHT22;5707;49.588;12.148;2023-06-26T14:54:12;34.90;9.30
11304;DHT22;5707;49.588;12.148;2023-06-26T14:56:38;34.90;9.40
11304;DHT22;5707;49.588;12.148;2023-06-26T14:59:03;35.10;10.70
11304;DHT22;5707;49.588;12.148;2023-06-26T15:01:29;35.30;11.60
11304;DHT22;5707;49.588;12.148;2023-06-26T15:03:55;35.70;9.30
11304;DHT22;5707;49.588;12.148;2023-06-26T15:06:21;35.70;8.50
11304;DHT22;5707;49.588;12.148;2023-06-26T15:08:46;35.70;7.80
11304;DHT22;5707;49.588;12.148;2023-06-26T15:11:12;35.60;9.90
11304;DHT22;5707;49.588;12.148;2023-06-26T15:13:37;35.10;7.70
11304;DHT22;5707;49.588;12.148;2023-06-26T15:16:03;35.00;9.50
11304;DHT22;5707;49.588;12.148;2023-06-26T15:18:29;35.00;12.60
11304;DHT22;5707;49.588;12.148;2023-06-26T15:20:54;35.20;13.00
11304;DHT22;5707;49.588;12.148;2023-06-26T15:23:20;35.30;8.10
11304;DHT22;5707;49.588;12.148;2023-06-26T15:25:45;35.40;8.60
11304;DHT22;5707;49.588;12.148;2023-06-26T15:28:11;35.10;8.90
11304;DHT22;5707;49.588;12.148;2023-06-26T15:30:36;34.80;12.90
11304;DHT22;5707;49.588;12.148;2023-06-26T15:33:02;34.70;11.60
11304;DHT22;5707;49.588;12.148;2023-06-26T15:35:27;34.90;9.60
11304;DHT22;5707;49.588;12.148;2023-06-26T15:37:53;35.00;9.10
11304;DHT22;5707;49.588;12.148;2023-06-26T15:40:19;34.90;9.50
11304;DHT22;5707;49.588;12.148;2023-06-26T15:42:49;34.80;10.30
11304;DHT22;5707;49.588;12.148;2023-06-26T15:45:15;35.50;11.70